sensor_id;sensor_type;location;lat;lon;timestamp;P1;durP1;ratioP1;P2;durP2;ratioP2
10811;SDS011;5458;51.496;7.334;2023-03-23T00:02:26;3.80;;;3.40;;
10811;SDS011;5458;51.496;7.334;2023-03-23T00:05:00;5.25;;;3.90;;
10811;SDS011;5458;51.496;7.334;2023-03-23T00:07:28;5.32;;;4.03;;
10811;SDS011;5458;51.496;7.334;2023-03-23T00:09:54;4.90;;;4.00;;
10811;SDS011;5458;51.496;7.334;2023-03-23T00:12:24;4.55;;;4.07;;
10811;SDS011;5458;51.496;7.334;2023-03-23T00:15:04;6.50;;;4.35;;
10811;SDS011;5458;51.496;7.334;2023-03-23T00:17:32;5.72;;;3.90;;
10811;SDS011;5458;51.496;7.334;2023-03-23T00:20:01;4.97;;;3.65;;
10811;SDS011;5458;51.496;7.334;2023-03-23T00:22:29;5.25;;;4.10;;
10811;SDS011;5458;51.496;7.334;2023-03-23T00:24:55;7.07;;;4.57;;
10811;SDS011;5458;51.496;7.334;2023-03-23T00:27:22;4.70;;;4.20;;
10811;SDS011;5458;51.496;7.334;2023-03-23T00:29:48;6.57;;;3.78;;
10811;SDS011;5458;51.496;7.334;2023-03-23T00:32:17;6.82;;;3.28;;
10811;SDS011;5458;51.496;7.334;2023-03-23T00:34:45;4.15;;;3.30;;
10811;SDS011;5458;51.496;7.334;2023-03-23T00:37:13;7.07;;;4.13;;
10811;SDS011;5458;51.496;7.334;2023-03-23T00:39:41;3.90;;;3.53;;
10811;SDS011;5458;51.496;7.334;2023-03-23T00:42:10;4.18;;;3.78;;
10811;SDS011;5458;51.496;7.334;2023-03-23T00:44:37;6.40;;;3.50;;
10811;SDS011;5458;51.496;7.334;2023-03-23T00:47:04;4.90;;;3.30;;
10811;SDS011;5458;51.496;7.334;2023-03-23T00:49:32;5.38;;;3.30;;
10811;SDS011;5458;51.496;7.334;2023-03-23T00:52:00;3.38;;;3.08;;
10811;SDS011;5458;51.496;7.334;2023-03-23T00:54:26;4.03;;;2.97;;
10811;SDS011;5458;51.496;7.334;2023-03-23T00:56:52;4.53;;;3.15;;
10811;SDS011;5458;51.496;7.334;2023-03-23T00:59:18;4.78;;;3.20;;
10811;SDS011;5458;51.496;7.334;2023-03-23T01:01:44;4.13;;;3.03;;
10811;SDS011;5458;51.496;7.334;2023-03-23T01:04:10;4.63;;;3.00;;
10811;SDS011;5458;51.496;7.334;2023-03-23T01:06:37;3.33;;;3.00;;
10811;SDS011;5458;51.496;7.334;2023-03-23T01:09:05;2.78;;;2.58;;
10811;SDS011;5458;51.496;7.334;2023-03-23T01:11:33;5.45;;;2.97;;
10811;SDS011;5458;51.496;7.334;2023-03-23T01:13:59;2.78;;;2.58;;
10811;SDS011;5458;51.496;7.334;2023-03-23T01:16:25;3.05;;;2.67;;
10811;SDS011;5458;51.496;7.334;2023-03-23T01:18:51;4.03;;;2.63;;
10811;SDS011;5458;51.496;7.334;2023-03-23T01:21:18;3.83;;;2.45;;
10811;SDS011;5458;51.496;7.334;2023-03-23T01:23:44;3.60;;;2.83;;
10811;SDS011;5458;51.496;7.334;2023-03-23T01:26:14;4.40;;;2.42;;
10811;SDS011;5458;51.496;7.334;2023-03-23T01:28:42;2.92;;;2.40;;
10811;SDS011;5458;51.496;7.334;2023-03-23T01:31:09;3.72;;;2.17;;
10811;SDS011;5458;51.496;7.334;2023-03-23T01:33:40;2.65;;;2.45;;
10811;SDS011;5458;51.496;7.334;2023-03-23T01:36:07;3.63;;;2.85;;
10811;SDS011;5458;51.496;7.334;2023-03-23T01:38:36;2.28;;;2.15;;
10811;SDS011;5458;51.496;7.334;2023-03-23T01:41:02;2.95;;;2.50;;
10811;SDS011;5458;51.496;7.334;2023-03-23T01:43:28;2.67;;;2.40;;
10811;SDS011;5458;51.496;7.334;2023-03-23T01:45:53;2.97;;;2.30;;
10811;SDS011;5458;51.496;7.334;2023-03-23T01:51:08;2.80;;;2.33;;
10811;SDS011;5458;51.496;7.334;2023-03-23T01:53:42;6.22;;;2.70;;
10811;SDS011;5458;51.496;7.334;2023-03-23T01:56:16;4.43;;;2.90;;
10811;SDS011;5458;51.496;7.334;2023-03-23T01:58:44;3.13;;;2.72;;
10811;SDS011;5458;51.496;7.334;2023-03-23T02:01:11;2.83;;;2.10;;
10811;SDS011;5458;51.496;7.334;2023-03-23T02:03:41;3.70;;;2.33;;
10811;SDS011;5458;51.496;7.334;2023-03-23T02:06:08;2.95;;;2.20;;
10811;SDS011;5458;51.496;7.334;2023-03-23T02:08:34;4.75;;;2.58;;
10811;SDS011;5458;51.496;7.334;2023-03-23T02:11:01;4.30;;;2.60;;
10811;SDS011;5458;51.496;7.334;2023-03-23T02:13:27;2.58;;;2.38;;
10811;SDS011;5458;51.496;7.334;2023-03-23T02:15:55;2.28;;;2.05;;
10811;SDS011;5458;51.496;7.334;2023-03-23T02:18:35;2.50;;;2.30;;
10811;SDS011;5458;51.496;7.334;2023-03-23T02:26:58;4.50;;;2.60;;
10811;SDS011;5458;51.496;7.334;2023-03-23T02:29:51;2.20;;;2.10;;
10811;SDS011;5458;51.496;7.334;2023-03-23T02:32:44;2.90;;;2.15;;
10811;SDS011;5458;51.496;7.334;2023-03-23T02:35:35;3.88;;;2.60;;
10811;SDS011;5458;51.496;7.334;2023-03-23T02:38:30;1.98;;;1.73;;
10811;SDS011;5458;51.496;7.334;2023-03-23T02:41:00;2.40;;;2.17;;
10811;SDS011;5458;51.496;7.334;2023-03-23T02:43:28;3.80;;;2.38;;
10811;SDS011;5458;51.496;7.334;2023-03-23T02:45:58;3.13;;;2.55;;
10811;SDS011;5458;51.496;7.334;2023-03-23T02:48:28;3.50;;;2.30;;
10811;SDS011;5458;51.496;7.334;2023-03-23T02:50:55;3.17;;;2.40;;
10811;SDS011;5458;51.496;7.334;2023-03-23T02:53:23;3.97;;;2.47;;
10811;SDS011;5458;51.496;7.334;2023-03-23T02:55:51;2.65;;;2.45;;
10811;SDS011;5458;51.496;7.334;2023-03-23T02:58:20;2.60;;;2.40;;
10811;SDS011;5458;51.496;7.334;2023-03-23T03:00:48;4.55;;;2.63;;
10811;SDS011;5458;51.496;7.334;2023-03-23T03:03:19;2.55;;;2.35;;
10811;SDS011;5458;51.496;7.334;2023-03-23T03:08:52;4.88;;;2.70;;
10811;SDS011;5458;51.496;7.334;2023-03-23T03:11:27;3.55;;;2.88;;
10811;SDS011;5458;51.496;7.334;2023-03-23T03:13:58;2.88;;;2.60;;
10811;SDS011;5458;51.496;7.334;2023-03-23T03:17:00;2.85;;;2.55;;
10811;SDS011;5458;51.496;7.334;2023-03-23T03:19:29;2.65;;;2.53;;
10811;SDS011;5458;51.496;7.334;2023-03-23T03:21:57;3.60;;;2.80;;
10811;SDS011;5458;51.496;7.334;2023-03-23T03:24:25;2.80;;;2.60;;
10811;SDS011;5458;51.496;7.334;2023-03-23T03:26:53;2.40;;;2.17;;
10811;SDS011;5458;51.496;7.334;2023-03-23T03:29:24;2.97;;;2.30;;
10811;SDS011;5458;51.496;7.334;2023-03-23T03:31:54;3.67;;;2.58;;
10811;SDS011;5458;51.496;7.334;2023-03-23T03:34:22;2.70;;;2.38;;
10811;SDS011;5458;51.496;7.334;2023-03-23T03:36:49;4.57;;;2.30;;
10811;SDS011;5458;51.496;7.334;2023-03-23T03:39:17;2.78;;;2.58;;
10811;SDS011;5458;51.496;7.334;2023-03-23T03:41:45;2.75;;;2.35;;
10811;SDS011;5458;51.496;7.334;2023-03-23T03:44:11;4.32;;;2.97;;
10811;SDS011;5458;51.496;7.334;2023-03-23T03:46:37;4.22;;;2.30;;
10811;SDS011;5458;51.496;7.334;2023-03-23T03:49:05;2.42;;;2.22;;
10811;SDS011;5458;51.496;7.334;2023-03-23T03:51:33;2.80;;;2.60;;
10811;SDS011;5458;51.496;7.334;2023-03-23T03:54:00;3.28;;;2.35;;
10811;SDS011;5458;51.496;7.334;2023-03-23T03:56:26;2.80;;;2.60;;
10811;SDS011;5458;51.496;7.334;2023-03-23T03:58:52;2.78;;;2.35;;
10811;SDS011;5458;51.496;7.334;2023-03-23T04:01:19;2.63;;;2.35;;
10811;SDS011;5458;51.496;7.334;2023-03-23T04:03:47;2.95;;;2.33;;
10811;SDS011;5458;51.496;7.334;2023-03-23T04:06:13;2.40;;;2.20;;
10811;SDS011;5458;51.496;7.334;2023-03-23T04:08:39;3.65;;;2.80;;
10811;SDS011;5458;51.496;7.334;2023-03-23T04:11:06;2.72;;;2.35;;
10811;SDS011;5458;51.496;7.334;2023-03-23T04:13:33;2.47;;;2.00;;
10811;SDS011;5458;51.496;7.334;2023-03-23T04:15:58;2.53;;;2.30;;
10811;SDS011;5458;51.496;7.334;2023-03-23T04:18:25;3.80;;;2.13;;
10811;SDS011;5458;51.496;7.334;2023-03-23T04:20:51;2.42;;;1.73;;
10811;SDS011;5458;51.496;7.334;2023-03-23T04:23:18;2.03;;;1.92;;
10811;SDS011;5458;51.496;7.334;2023-03-23T04:25:46;2.58;;;2.10;;
10811;SDS011;5458;51.496;7.334;2023-03-23T04:28:13;1.75;;;1.65;;
10811;SDS011;5458;51.496;7.334;2023-03-23T04:30:41;3.00;;;2.13;;
10811;SDS011;5458;51.496;7.334;2023-03-23T04:33:08;2.55;;;1.92;;
10811;SDS011;5458;51.496;7.334;2023-03-23T04:35:39;2.10;;;2.00;;
10811;SDS011;5458;51.496;7.334;2023-03-23T04:38:05;2.03;;;1.92;;
10811;SDS011;5458;51.496;7.334;2023-03-23T04:40:30;2.88;;;1.92;;
10811;SDS011;5458;51.496;7.334;2023-03-23T04:42:56;2.38;;;2.15;;
10811;SDS011;5458;51.496;7.334;2023-03-23T04:45:23;2.20;;;1.90;;
10811;SDS011;5458;51.496;7.334;2023-03-23T04:47:49;2.28;;;2.05;;
10811;SDS011;5458;51.496;7.334;2023-03-23T04:50:22;2.67;;;2.15;;
10811;SDS011;5458;51.496;7.334;2023-03-23T04:52:49;1.90;;;1.77;;
10811;SDS011;5458;51.496;7.334;2023-03-23T04:55:16;2.38;;;1.95;;
10811;SDS011;5458;51.496;7.334;2023-03-23T04:57:44;2.20;;;2.00;;
10811;SDS011;5458;51.496;7.334;2023-03-23T05:00:11;2.63;;;1.90;;
10811;SDS011;5458;51.496;7.334;2023-03-23T05:02:39;2.35;;;1.92;;
10811;SDS011;5458;51.496;7.334;2023-03-23T05:05:05;2.38;;;2.17;;
10811;SDS011;5458;51.496;7.334;2023-03-23T05:07:31;2.17;;;1.90;;
10811;SDS011;5458;51.496;7.334;2023-03-23T05:09:57;2.22;;;2.00;;
10811;SDS011;5458;51.496;7.334;2023-03-23T05:12:23;2.40;;;2.30;;
10811;SDS011;5458;51.496;7.334;2023-03-23T05:14:48;1.85;;;1.75;;
10811;SDS011;5458;51.496;7.334;2023-03-23T05:17:14;2.30;;;2.10;;
10811;SDS011;5458;51.496;7.334;2023-03-23T05:19:42;2.10;;;1.88;;
10811;SDS011;5458;51.496;7.334;2023-03-23T05:22:09;4.07;;;2.20;;
10811;SDS011;5458;51.496;7.334;2023-03-23T05:24:37;2.92;;;1.80;;
10811;SDS011;5458;51.496;7.334;2023-03-23T05:27:03;1.88;;;1.77;;
10811;SDS011;5458;51.496;7.334;2023-03-23T05:29:29;2.90;;;2.25;;
10811;SDS011;5458;51.496;7.334;2023-03-23T05:31:55;2.47;;;1.88;;
10811;SDS011;5458;51.496;7.334;2023-03-23T05:34:24;2.38;;;2.17;;
10811;SDS011;5458;51.496;7.334;2023-03-23T05:36:54;2.53;;;2.10;;
10811;SDS011;5458;51.496;7.334;2023-03-23T05:39:20;1.63;;;1.52;;
10811;SDS011;5458;51.496;7.334;2023-03-23T05:41:46;2.08;;;1.85;;
10811;SDS011;5458;51.496;7.334;2023-03-23T05:44:12;2.40;;;1.85;;
10811;SDS011;5458;51.496;7.334;2023-03-23T05:46:38;2.33;;;2.10;;
10811;SDS011;5458;51.496;7.334;2023-03-23T05:49:04;1.90;;;1.80;;
10811;SDS011;5458;51.496;7.334;2023-03-23T05:51:30;1.80;;;1.65;;
10811;SDS011;5458;51.496;7.334;2023-03-23T05:53:56;2.65;;;1.85;;
10811;SDS011;5458;51.496;7.334;2023-03-23T05:56:22;2.45;;;1.80;;
10811;SDS011;5458;51.496;7.334;2023-03-23T05:58:48;2.03;;;1.75;;
10811;SDS011;5458;51.496;7.334;2023-03-23T06:01:13;2.72;;;1.77;;
10811;SDS011;5458;51.496;7.334;2023-03-23T06:03:40;2.15;;;1.95;;
10811;SDS011;5458;51.496;7.334;2023-03-23T06:06:05;2.97;;;2.40;;
10811;SDS011;5458;51.496;7.334;2023-03-23T06:08:32;2.38;;;2.10;;
10811;SDS011;5458;51.496;7.334;2023-03-23T06:10:57;3.13;;;1.98;;
10811;SDS011;5458;51.496;7.334;2023-03-23T06:13:23;2.97;;;1.60;;
10811;SDS011;5458;51.496;7.334;2023-03-23T06:15:49;3.28;;;2.30;;
10811;SDS011;5458;51.496;7.334;2023-03-23T06:18:15;2.03;;;1.88;;
10811;SDS011;5458;51.496;7.334;2023-03-23T06:20:41;2.05;;;1.60;;
10811;SDS011;5458;51.496;7.334;2023-03-23T06:23:09;3.08;;;1.83;;
10811;SDS011;5458;51.496;7.334;2023-03-23T06:25:34;2.13;;;1.90;;
10811;SDS011;5458;51.496;7.334;2023-03-23T06:28:00;2.47;;;1.95;;
10811;SDS011;5458;51.496;7.334;2023-03-23T06:30:26;3.65;;;2.35;;
10811;SDS011;5458;51.496;7.334;2023-03-23T06:32:52;3.63;;;2.30;;
10811;SDS011;5458;51.496;7.334;2023-03-23T06:35:18;2.83;;;2.05;;
10811;SDS011;5458;51.496;7.334;2023-03-23T06:37:44;4.57;;;2.78;;
10811;SDS011;5458;51.496;7.334;2023-03-23T06:40:10;3.72;;;2.05;;
10811;SDS011;5458;51.496;7.334;2023-03-23T06:42:36;3.25;;;2.00;;
10811;SDS011;5458;51.496;7.334;2023-03-23T06:45:03;2.63;;;2.42;;
10811;SDS011;5458;51.496;7.334;2023-03-23T06:47:29;2.88;;;2.30;;
10811;SDS011;5458;51.496;7.334;2023-03-23T06:49:56;2.95;;;2.33;;
10811;SDS011;5458;51.496;7.334;2023-03-23T06:52:22;3.55;;;2.47;;
10811;SDS011;5458;51.496;7.334;2023-03-23T06:54:49;3.83;;;2.28;;
10811;SDS011;5458;51.496;7.334;2023-03-23T06:57:15;2.45;;;2.25;;
10811;SDS011;5458;51.496;7.334;2023-03-23T06:59:41;2.10;;;1.95;;
10811;SDS011;5458;51.496;7.334;2023-03-23T07:02:11;3.85;;;2.58;;
10811;SDS011;5458;51.496;7.334;2023-03-23T07:04:38;4.40;;;2.40;;
10811;SDS011;5458;51.496;7.334;2023-03-23T07:07:05;3.20;;;2.05;;
10811;SDS011;5458;51.496;7.334;2023-03-23T07:09:34;5.32;;;2.08;;
10811;SDS011;5458;51.496;7.334;2023-03-23T07:12:00;3.03;;;2.72;;
10811;SDS011;5458;51.496;7.334;2023-03-23T07:14:26;3.30;;;2.17;;
10811;SDS011;5458;51.496;7.334;2023-03-23T07:16:51;5.13;;;2.42;;
10811;SDS011;5458;51.496;7.334;2023-03-23T07:19:18;2.30;;;2.10;;
10811;SDS011;5458;51.496;7.334;2023-03-23T07:21:44;3.72;;;2.22;;
10811;SDS011;5458;51.496;7.334;2023-03-23T07:24:10;3.33;;;2.10;;
10811;SDS011;5458;51.496;7.334;2023-03-23T07:26:40;4.30;;;2.25;;
10811;SDS011;5458;51.496;7.334;2023-03-23T07:29:06;2.53;;;1.95;;
10811;SDS011;5458;51.496;7.334;2023-03-23T07:31:32;4.75;;;2.20;;
10811;SDS011;5458;51.496;7.334;2023-03-23T07:33:58;3.95;;;2.00;;
10811;SDS011;5458;51.496;7.334;2023-03-23T07:36:24;5.72;;;2.20;;
10811;SDS011;5458;51.496;7.334;2023-03-23T07:38:51;5.00;;;2.10;;
10811;SDS011;5458;51.496;7.334;2023-03-23T07:41:16;4.13;;;2.17;;
10811;SDS011;5458;51.496;7.334;2023-03-23T07:43:42;5.25;;;1.95;;
10811;SDS011;5458;51.496;7.334;2023-03-23T07:46:08;4.22;;;1.95;;
10811;SDS011;5458;51.496;7.334;2023-03-23T07:48:34;1.90;;;1.50;;
10811;SDS011;5458;51.496;7.334;2023-03-23T07:50:59;3.25;;;1.80;;
10811;SDS011;5458;51.496;7.334;2023-03-23T07:53:25;4.00;;;1.98;;
10811;SDS011;5458;51.496;7.334;2023-03-23T07:55:51;4.10;;;1.95;;
10811;SDS011;5458;51.496;7.334;2023-03-23T07:58:17;3.58;;;1.88;;
10811;SDS011;5458;51.496;7.334;2023-03-23T08:00:45;5.40;;;2.08;;
10811;SDS011;5458;51.496;7.334;2023-03-23T08:03:13;2.30;;;1.90;;
10811;SDS011;5458;51.496;7.334;2023-03-23T08:05:39;4.95;;;2.35;;
10811;SDS011;5458;51.496;7.334;2023-03-23T08:08:06;4.68;;;1.48;;
10811;SDS011;5458;51.496;7.334;2023-03-23T08:10:33;5.00;;;1.75;;
10811;SDS011;5458;51.496;7.334;2023-03-23T08:12:59;4.13;;;1.73;;
10811;SDS011;5458;51.496;7.334;2023-03-23T08:15:25;3.20;;;1.80;;
10811;SDS011;5458;51.496;7.334;2023-03-23T08:17:52;2.80;;;1.60;;
10811;SDS011;5458;51.496;7.334;2023-03-23T08:20:18;6.07;;;1.80;;
10811;SDS011;5458;51.496;7.334;2023-03-23T08:22:45;2.75;;;1.52;;
10811;SDS011;5458;51.496;7.334;2023-03-23T08:25:15;2.92;;;1.45;;
10811;SDS011;5458;51.496;7.334;2023-03-23T08:27:42;3.40;;;1.55;;
10811;SDS011;5458;51.496;7.334;2023-03-23T08:30:08;2.35;;;1.60;;
10811;SDS011;5458;51.496;7.334;2023-03-23T08:32:39;3.92;;;1.88;;
10811;SDS011;5458;51.496;7.334;2023-03-23T08:35:05;4.55;;;1.98;;
10811;SDS011;5458;51.496;7.334;2023-03-23T08:37:33;3.50;;;1.80;;
10811;SDS011;5458;51.496;7.334;2023-03-23T08:40:00;3.40;;;2.08;;
10811;SDS011;5458;51.496;7.334;2023-03-23T08:42:32;2.15;;;1.30;;
10811;SDS011;5458;51.496;7.334;2023-03-23T08:44:58;3.20;;;1.88;;
10811;SDS011;5458;51.496;7.334;2023-03-23T08:47:24;5.47;;;2.00;;
10811;SDS011;5458;51.496;7.334;2023-03-23T08:49:50;4.22;;;1.95;;
10811;SDS011;5458;51.496;7.334;2023-03-23T08:52:18;1.92;;;1.15;;
10811;SDS011;5458;51.496;7.334;2023-03-23T08:54:43;3.40;;;1.80;;
10811;SDS011;5458;51.496;7.334;2023-03-23T08:57:12;4.43;;;2.08;;
10811;SDS011;5458;51.496;7.334;2023-03-23T08:59:38;3.67;;;1.70;;
10811;SDS011;5458;51.496;7.334;2023-03-23T09:02:03;4.97;;;1.88;;
10811;SDS011;5458;51.496;7.334;2023-03-23T09:04:29;2.50;;;1.35;;
10811;SDS011;5458;51.496;7.334;2023-03-23T09:06:55;3.60;;;1.67;;
10811;SDS011;5458;51.496;7.334;2023-03-23T09:09:22;6.20;;;1.85;;
10811;SDS011;5458;51.496;7.334;2023-03-23T09:11:48;4.75;;;1.80;;
10811;SDS011;5458;51.496;7.334;2023-03-23T09:14:14;3.17;;;1.48;;
10811;SDS011;5458;51.496;7.334;2023-03-23T09:16:40;3.85;;;1.48;;
10811;SDS011;5458;51.496;7.334;2023-03-23T09:19:05;2.42;;;1.23;;
10811;SDS011;5458;51.496;7.334;2023-03-23T09:21:34;3.53;;;1.95;;
10811;SDS011;5458;51.496;7.334;2023-03-23T09:24:00;3.28;;;1.70;;
10811;SDS011;5458;51.496;7.334;2023-03-23T09:26:26;4.22;;;1.83;;
10811;SDS011;5458;51.496;7.334;2023-03-23T09:28:53;3.45;;;1.80;;
10811;SDS011;5458;51.496;7.334;2023-03-23T09:31:21;6.97;;;1.70;;
10811;SDS011;5458;51.496;7.334;2023-03-23T09:33:47;5.20;;;2.00;;
10811;SDS011;5458;51.496;7.334;2023-03-23T09:36:17;5.03;;;2.53;;
10811;SDS011;5458;51.496;7.334;2023-03-23T09:38:46;3.72;;;1.67;;
10811;SDS011;5458;51.496;7.334;2023-03-23T09:49:33;3.83;;;1.95;;
10811;SDS011;5458;51.496;7.334;2023-03-23T09:52:17;5.38;;;2.13;;
10811;SDS011;5458;51.496;7.334;2023-03-23T09:54:47;5.40;;;1.83;;
10811;SDS011;5458;51.496;7.334;2023-03-23T09:59:54;4.38;;;2.05;;
10811;SDS011;5458;51.496;7.334;2023-03-23T10:02:29;7.53;;;1.90;;
10811;SDS011;5458;51.496;7.334;2023-03-23T10:07:44;7.50;;;1.80;;
10811;SDS011;5458;51.496;7.334;2023-03-23T10:10:12;4.97;;;2.00;;
10811;SDS011;5458;51.496;7.334;2023-03-23T10:12:42;3.95;;;1.70;;
10811;SDS011;5458;51.496;7.334;2023-03-23T10:15:26;4.88;;;1.70;;
10811;SDS011;5458;51.496;7.334;2023-03-23T10:18:16;4.68;;;2.00;;
10811;SDS011;5458;51.496;7.334;2023-03-23T10:31:34;3.65;;;1.83;;
10811;SDS011;5458;51.496;7.334;2023-03-23T10:34:05;6.07;;;1.30;;
10811;SDS011;5458;51.496;7.334;2023-03-23T10:37:31;3.42;;;1.48;;
10811;SDS011;5458;51.496;7.334;2023-03-23T10:39:55;5.47;;;1.50;;
10811;SDS011;5458;51.496;7.334;2023-03-23T10:42:30;6.55;;;1.60;;
10811;SDS011;5458;51.496;7.334;2023-03-23T10:45:00;2.33;;;1.52;;
10811;SDS011;5458;51.496;7.334;2023-03-23T10:47:36;1.85;;;1.50;;
10811;SDS011;5458;51.496;7.334;2023-03-23T10:50:05;2.13;;;1.40;;
10811;SDS011;5458;51.496;7.334;2023-03-23T10:52:38;1.90;;;1.40;;
10811;SDS011;5458;51.496;7.334;2023-03-23T10:55:12;1.77;;;1.20;;
10811;SDS011;5458;51.496;7.334;2023-03-23T10:57:41;3.13;;;1.50;;
10811;SDS011;5458;51.496;7.334;2023-03-23T11:00:17;2.45;;;1.52;;
10811;SDS011;5458;51.496;7.334;2023-03-23T11:03:01;1.25;;;1.13;;
10811;SDS011;5458;51.496;7.334;2023-03-23T11:05:53;2.17;;;1.35;;
10811;SDS011;5458;51.496;7.334;2023-03-23T11:08:34;4.97;;;1.40;;
10811;SDS011;5458;51.496;7.334;2023-03-23T11:11:16;3.72;;;1.30;;
10811;SDS011;5458;51.496;7.334;2023-03-23T11:13:43;3.15;;;1.15;;
10811;SDS011;5458;51.496;7.334;2023-03-23T11:16:10;2.28;;;1.30;;
10811;SDS011;5458;51.496;7.334;2023-03-23T11:18:46;3.20;;;1.83;;
10811;SDS011;5458;51.496;7.334;2023-03-23T11:21:12;3.30;;;1.35;;
10811;SDS011;5458;51.496;7.334;2023-03-23T11:23:40;2.58;;;1.50;;
10811;SDS011;5458;51.496;7.334;2023-03-23T11:29:04;2.47;;;1.65;;
10811;SDS011;5458;51.496;7.334;2023-03-23T11:31:44;2.33;;;1.92;;
10811;SDS011;5458;51.496;7.334;2023-03-23T11:36:36;1.70;;;1.60;;
10811;SDS011;5458;51.496;7.334;2023-03-23T11:41:50;3.35;;;1.90;;
10811;SDS011;5458;51.496;7.334;2023-03-23T11:44:16;3.83;;;1.77;;
10811;SDS011;5458;51.496;7.334;2023-03-23T11:46:47;2.42;;;2.30;;
10811;SDS011;5458;51.496;7.334;2023-03-23T11:49:39;2.97;;;1.92;;
10811;SDS011;5458;51.496;7.334;2023-03-23T11:52:26;6.03;;;2.22;;
10811;SDS011;5458;51.496;7.334;2023-03-23T11:54:59;3.95;;;2.72;;
10811;SDS011;5458;51.496;7.334;2023-03-23T11:57:35;4.10;;;3.08;;
10811;SDS011;5458;51.496;7.334;2023-03-23T12:00:01;4.10;;;3.20;;
10811;SDS011;5458;51.496;7.334;2023-03-23T12:05:23;5.90;;;4.50;;
10811;SDS011;5458;51.496;7.334;2023-03-23T12:10:43;4.07;;;3.72;;
10811;SDS011;5458;51.496;7.334;2023-03-23T12:19:03;4.95;;;3.80;;
10811;SDS011;5458;51.496;7.334;2023-03-23T12:25:14;3.97;;;3.00;;
10811;SDS011;5458;51.496;7.334;2023-03-23T12:27:28;3.17;;;2.15;;
10811;SDS011;5458;51.496;7.334;2023-03-23T12:32:57;2.05;;;1.73;;
10811;SDS011;5458;51.496;7.334;2023-03-23T12:41:05;1.77;;;1.52;;
10811;SDS011;5458;51.496;7.334;2023-03-23T12:44:03;1.70;;;1.38;;
10811;SDS011;5458;51.496;7.334;2023-03-23T12:52:02;2.53;;;1.50;;
10811;SDS011;5458;51.496;7.334;2023-03-23T12:59:54;1.88;;;1.52;;
10811;SDS011;5458;51.496;7.334;2023-03-23T13:02:39;2.28;;;2.00;;
10811;SDS011;5458;51.496;7.334;2023-03-23T13:07:59;1.95;;;1.40;;
10811;SDS011;5458;51.496;7.334;2023-03-23T13:10:42;2.00;;;1.15;;
10811;SDS011;5458;51.496;7.334;2023-03-23T13:13:19;2.00;;;1.50;;
10811;SDS011;5458;51.496;7.334;2023-03-23T13:21:49;1.65;;;1.27;;
10811;SDS011;5458;51.496;7.334;2023-03-23T13:24:14;2.58;;;1.35;;
10811;SDS011;5458;51.496;7.334;2023-03-23T13:29:36;3.15;;;2.30;;
10811;SDS011;5458;51.496;7.334;2023-03-23T13:32:11;3.63;;;2.63;;
10811;SDS011;5458;51.496;7.334;2023-03-23T13:34:41;2.90;;;2.00;;
10811;SDS011;5458;51.496;7.334;2023-03-23T13:37:11;3.92;;;1.80;;
10811;SDS011;5458;51.496;7.334;2023-03-23T13:49:52;3.75;;;1.85;;
10811;SDS011;5458;51.496;7.334;2023-03-23T13:52:45;2.28;;;1.80;;
10811;SDS011;5458;51.496;7.334;2023-03-23T14:08:36;3.15;;;1.70;;
10811;SDS011;5458;51.496;7.334;2023-03-23T14:16:40;2.85;;;1.90;;
10811;SDS011;5458;51.496;7.334;2023-03-23T14:19:41;5.18;;;2.00;;
10811;SDS011;5458;51.496;7.334;2023-03-23T14:22:02;3.20;;;2.28;;
10811;SDS011;5458;51.496;7.334;2023-03-23T14:24:29;5.47;;;2.80;;
10811;SDS011;5458;51.496;7.334;2023-03-23T14:27:08;2.90;;;2.70;;
10811;SDS011;5458;51.496;7.334;2023-03-23T14:29:35;4.35;;;3.33;;
10811;SDS011;5458;51.496;7.334;2023-03-23T14:32:01;4.88;;;3.20;;
10811;SDS011;5458;51.496;7.334;2023-03-23T14:34:28;3.92;;;3.60;;
10811;SDS011;5458;51.496;7.334;2023-03-23T14:36:56;4.93;;;4.13;;
10811;SDS011;5458;51.496;7.334;2023-03-23T14:39:26;4.55;;;4.20;;
10811;SDS011;5458;51.496;7.334;2023-03-23T14:41:55;4.45;;;4.05;;
10811;SDS011;5458;51.496;7.334;2023-03-23T14:44:27;4.85;;;4.25;;
10811;SDS011;5458;51.496;7.334;2023-03-23T14:46:55;4.93;;;4.53;;
10811;SDS011;5458;51.496;7.334;2023-03-23T14:49:28;5.03;;;4.53;;
10811;SDS011;5458;51.496;7.334;2023-03-23T14:52:01;5.38;;;4.90;;
10811;SDS011;5458;51.496;7.334;2023-03-23T14:54:29;6.85;;;4.53;;
10811;SDS011;5458;51.496;7.334;2023-03-23T14:57:02;5.05;;;4.60;;
10811;SDS011;5458;51.496;7.334;2023-03-23T14:59:35;4.78;;;4.20;;
10811;SDS011;5458;51.496;7.334;2023-03-23T15:02:01;6.25;;;4.68;;
10811;SDS011;5458;51.496;7.334;2023-03-23T15:04:28;6.88;;;4.45;;
10811;SDS011;5458;51.496;7.334;2023-03-23T15:07:03;5.53;;;4.85;;
10811;SDS011;5458;51.496;7.334;2023-03-23T15:09:30;4.40;;;4.00;;
10811;SDS011;5458;51.496;7.334;2023-03-23T15:12:01;5.32;;;4.55;;
10811;SDS011;5458;51.496;7.334;2023-03-23T15:14:43;5.10;;;4.50;;
10811;SDS011;5458;51.496;7.334;2023-03-23T15:17:18;6.80;;;4.68;;
10811;SDS011;5458;51.496;7.334;2023-03-23T15:19:46;5.28;;;3.53;;
10811;SDS011;5458;51.496;7.334;2023-03-23T15:22:20;3.97;;;3.30;;
10811;SDS011;5458;51.496;7.334;2023-03-23T15:25:10;3.97;;;3.28;;
10811;SDS011;5458;51.496;7.334;2023-03-23T15:27:43;5.43;;;3.67;;
10811;SDS011;5458;51.496;7.334;2023-03-23T15:32:49;4.20;;;2.92;;
10811;SDS011;5458;51.496;7.334;2023-03-23T15:35:26;2.85;;;2.53;;
10811;SDS011;5458;51.496;7.334;2023-03-23T15:37:53;3.88;;;2.67;;
10811;SDS011;5458;51.496;7.334;2023-03-23T15:40:26;2.53;;;1.83;;
10811;SDS011;5458;51.496;7.334;2023-03-23T15:45:58;3.97;;;1.73;;
10811;SDS011;5458;51.496;7.334;2023-03-23T15:48:46;4.18;;;2.25;;
10811;SDS011;5458;51.496;7.334;2023-03-23T15:51:12;3.92;;;2.00;;
10811;SDS011;5458;51.496;7.334;2023-03-23T15:53:38;4.03;;;2.60;;
10811;SDS011;5458;51.496;7.334;2023-03-23T15:56:05;6.72;;;2.70;;
10811;SDS011;5458;51.496;7.334;2023-03-23T15:58:33;5.03;;;2.80;;
10811;SDS011;5458;51.496;7.334;2023-03-23T16:01:02;3.75;;;1.77;;
10811;SDS011;5458;51.496;7.334;2023-03-23T16:03:38;4.95;;;1.90;;
10811;SDS011;5458;51.496;7.334;2023-03-23T16:06:36;3.45;;;2.05;;
10811;SDS011;5458;51.496;7.334;2023-03-23T16:09:03;4.13;;;1.75;;
10811;SDS011;5458;51.496;7.334;2023-03-23T16:11:30;6.57;;;1.70;;
10811;SDS011;5458;51.496;7.334;2023-03-23T16:13:56;5.53;;;1.95;;
10811;SDS011;5458;51.496;7.334;2023-03-23T16:16:25;3.67;;;2.20;;
10811;SDS011;5458;51.496;7.334;2023-03-23T16:18:51;2.85;;;1.98;;
10811;SDS011;5458;51.496;7.334;2023-03-23T16:21:17;3.42;;;2.15;;
10811;SDS011;5458;51.496;7.334;2023-03-23T16:23:43;2.72;;;1.98;;
10811;SDS011;5458;51.496;7.334;2023-03-23T16:26:10;4.05;;;2.30;;
10811;SDS011;5458;51.496;7.334;2023-03-23T16:28:39;5.20;;;2.63;;
10811;SDS011;5458;51.496;7.334;2023-03-23T16:31:05;4.03;;;2.10;;
10811;SDS011;5458;51.496;7.334;2023-03-23T16:33:31;3.22;;;2.17;;
10811;SDS011;5458;51.496;7.334;2023-03-23T16:35:57;7.00;;;2.35;;
10811;SDS011;5458;51.496;7.334;2023-03-23T16:38:23;4.15;;;2.10;;
10811;SDS011;5458;51.496;7.334;2023-03-23T16:40:49;5.43;;;2.00;;
10811;SDS011;5458;51.496;7.334;2023-03-23T16:43:15;3.20;;;1.98;;
10811;SDS011;5458;51.496;7.334;2023-03-23T16:45:41;2.83;;;1.90;;
10811;SDS011;5458;51.496;7.334;2023-03-23T16:48:08;5.55;;;2.40;;
10811;SDS011;5458;51.496;7.334;2023-03-23T16:50:35;3.63;;;2.35;;
10811;SDS011;5458;51.496;7.334;2023-03-23T16:53:01;4.22;;;2.55;;
10811;SDS011;5458;51.496;7.334;2023-03-23T16:55:28;3.67;;;1.98;;
10811;SDS011;5458;51.496;7.334;2023-03-23T16:57:55;6.47;;;3.70;;
10811;SDS011;5458;51.496;7.334;2023-03-23T17:00:23;9.35;;;5.00;;
10811;SDS011;5458;51.496;7.334;2023-03-23T17:02:50;9.70;;;4.55;;
10811;SDS011;5458;51.496;7.334;2023-03-23T17:05:17;11.98;;;6.88;;
10811;SDS011;5458;51.496;7.334;2023-03-23T17:07:44;7.13;;;3.35;;
10811;SDS011;5458;51.496;7.334;2023-03-23T17:10:10;7.15;;;4.25;;
10811;SDS011;5458;51.496;7.334;2023-03-23T17:12:37;6.07;;;4.07;;
10811;SDS011;5458;51.496;7.334;2023-03-23T17:15:03;6.60;;;2.83;;
10811;SDS011;5458;51.496;7.334;2023-03-23T17:17:30;3.95;;;2.78;;
10811;SDS011;5458;51.496;7.334;2023-03-23T17:19:56;5.65;;;3.20;;